Time;durP1;ratioP1;P1;durP2;ratioP2;P2;SDS_P1;SDS_P2;PMS_P1;PMS_P2;Temp;Humidity;BMP_temperature;BMP_pressure;BME280_temperature;BME280_humidity;BME280_pressure;Samples;Min_cycle;Max_cycle;Signal;HPM_P1;HPM_P2
2021/05/26 01:05:41;;;;;;;5.32;5.00;;;8.80;82.50;;;;;;5861869;23;20222;-90
2021/05/26 03:09:06;;;;;;;10.07;5.13;;;10.00;76.80;;;;;;6024697;23;21304;-89
2021/05/26 03:52:31;;;;;;;5.50;4.03;;;10.30;77.30;;;;;;5702080;23;20460;-89
2021/05/26 03:55:00;;;;;;;8.32;4.32;;;10.70;83.10;;;;;;5469744;23;20294;-90
2021/05/26 04:02:40;;;;;;;5.28;3.70;;;10.00;76.50;;;;;;5757030;23;20707;-91
2021/05/26 04:33:45;;;;;;;10.03;4.47;;;10.10;75.00;;;;;;5543661;23;20496;-88
2021/05/26 04:49:07;;;;;;;5.35;2.72;;;10.20;74.60;;;;;;5409818;23;20456;-89
2021/05/26 04:51:34;;;;;;;4.17;3.30;;;10.30;73.70;;;;;;5705712;23;20218;-88
2021/05/26 04:59:40;;;;;;;3.33;2.83;;;10.20;73.80;;;;;;5453931;23;20229;-89
2021/05/26 05:02:06;;;;;;;2.80;2.60;;;11.00;74.30;;;;;;5366084;23;20539;-88
2021/05/26 05:07:07;;;;;;;2.40;2.30;;;10.20;72.60;;;;;;5393420;23;20216;-90
2021/05/26 05:09:34;;;;;;;3.20;2.27;;;10.40;76.30;;;;;;5310386;23;20216;-88
2021/05/26 05:12:01;;;;;;;2.15;2.05;;;8.90;76.00;;;;;;5151401;23;20223;-90
2021/05/26 05:14:26;;;;;;;8.18;2.65;;;10.30;78.70;;;;;;5034532;28;20179;-89
2021/05/26 05:19:33;;;;;;;4.00;3.33;;;10.20;73.80;;;;;;5012249;23;20228;-90
2021/05/26 05:22:00;;;;;;;2.73;2.63;;;10.40;73.90;;;;;;5436155;23;21474;-90
2021/05/26 05:27:01;;;;;;;6.75;2.70;;;10.20;74.10;;;;;;5013137;23;20297;-89
2021/05/26 05:37:15;;;;;;;4.10;2.70;;;10.30;73.80;;;;;;5513703;23;20216;-88
2021/05/26 05:39:48;;;;;;;5.87;3.80;;;12.20;80.90;;;;;;5481253;23;20204;-89
2021/05/26 05:47:28;;;;;;;2.60;2.40;;;10.40;73.30;;;;;;5342830;23;20923;-89
2021/05/26 05:49:59;;;;;;;2.77;2.33;;;10.20;76.00;;;;;;4997244;28;20476;-90
2021/05/26 05:52:25;;;;;;;2.87;2.67;;;10.30;73.90;;;;;;4994398;28;20189;-90
2021/05/26 05:54:56;;;;;;;4.33;2.47;;;10.60;77.30;;;;;;5012678;28;20427;-87
2021/05/26 05:57:40;;;;;;;3.97;2.28;;;12.20;73.90;;;;;;5011183;28;20188;-90
2021/05/26 06:00:19;;;;;;;1.98;1.88;;;11.20;72.70;;;;;;5014107;28;20181;-92
2021/05/26 06:05:36;;;;;;;2.50;2.38;;;10.80;71.00;;;;;;5061707;23;20233;-88
2021/05/26 06:08:05;;;;;;;2.30;2.30;;;12.90;78.90;;;;;;5012179;28;20196;-88
2021/05/26 06:10:40;;;;;;;3.60;3.33;;;11.60;74.00;;;;;;5012631;28;20416;-90
2021/05/26 06:13:08;;;;;;;2.65;2.65;;;11.80;75.00;;;;;;5014404;28;20423;-89
2021/05/26 06:15:46;;;;;;;3.00;2.10;;;12.50;77.30;;;;;;5014913;28;20263;-88
2021/05/26 06:18:16;;;;;;;2.45;1.98;;;9.50;70.60;;;;;;4983232;28;20164;-92
2021/05/26 06:20:53;;;;;;;2.38;2.13;;;13.10;73.40;;;;;;5012237;28;20354;-92
2021/05/26 06:23:21;;;;;;;4.33;3.40;;;13.60;72.10;;;;;;4979789;28;20189;-88
2021/05/26 06:25:55;;;;;;;3.13;1.95;;;11.40;67.70;;;;;;5012419;28;20523;-90
2021/05/26 06:28:21;;;;;;;2.40;2.20;;;12.20;71.30;;;;;;5048581;23;20207;-88
2021/05/26 06:30:47;;;;;;;2.20;2.10;;;12.30;71.90;;;;;;5035062;28;20449;-90
2021/05/26 06:33:15;;;;;;;1.73;1.73;;;13.20;72.60;;;;;;5328380;23;20280;-89
2021/05/26 06:35:41;;;;;;;2.63;2.00;;;12.50;71.50;;;;;;4997361;28;20436;-89
2021/05/26 06:38:07;;;;;;;1.97;1.83;;;12.50;70.90;;;;;;5014031;28;20443;-90
2021/05/26 06:43:34;;;;;;;5.17;4.73;;;10.60;63.10;;;;;;5210722;23;20574;-90
2021/05/26 06:46:00;;;;;;;2.63;2.40;;;11.60;67.70;;;;;;5006078;28;20427;-88
2021/05/26 06:48:29;;;;;;;1.73;1.70;;;13.20;68.20;;;;;;4677977;28;9999713;-90
2021/05/26 06:50:58;;;;;;;2.30;1.93;;;11.40;66.50;;;;;;5009181;28;20473;-90
2021/05/26 06:53:25;;;;;;;3.03;2.27;;;12.80;67.80;;;;;;5008962;28;20424;-89
2021/05/26 06:55:52;;;;;;;2.30;2.13;;;11.40;66.80;;;;;;5025639;28;20411;-90
2021/05/26 06:58:20;;;;;;;2.47;2.38;;;11.60;66.90;;;;;;5007316;28;20196;-92
2021/05/26 07:00:46;;;;;;;1.93;1.83;;;11.60;67.30;;;;;;5009355;28;20216;-90
2021/05/26 07:03:15;;;;;;;1.60;1.60;;;13.40;70.50;;;;;;5004859;28;20526;-90
2021/05/26 07:05:41;;;;;;;2.60;1.80;;;11.80;64.50;;;;;;5010579;28;20268;-89
2021/05/26 07:08:06;;;;;;;1.40;1.30;;;12.80;67.20;;;;;;5010034;28;20521;-86
2021/05/26 07:10:35;;;;;;;1.70;1.53;;;13.00;67.10;;;;;;5014488;28;20635;-90
2021/05/26 07:13:01;;;;;;;1.77;1.63;;;12.00;62.80;;;;;;5012535;28;20172;-88
2021/05/26 07:15:27;;;;;;;1.20;1.20;;;12.20;63.90;;;;;;4997814;28;21001;-88
2021/05/26 07:17:55;;;;;;;1.10;1.10;;;12.30;61.60;;;;;;5031191;28;20416;-88
2021/05/26 07:20:21;;;;;;;1.93;1.80;;;13.90;64.50;;;;;;5009030;28;20467;-91
2021/05/26 07:23:17;;;;;;;4.50;4.30;;;13.40;66.60;;;;;;5013206;28;20430;-89
2021/05/26 07:25:43;;;;;;;1.40;1.40;;;13.40;62.40;;;;;;5028109;28;20422;-87
2021/05/26 07:28:15;;;;;;;1.50;1.40;;;15.10;66.30;;;;;;5026183;28;20403;-88
2021/05/26 07:30:46;;;;;;;2.57;1.73;;;12.70;59.30;;;;;;5018493;28;20156;-88
2021/05/26 07:33:14;;;;;;;1.47;1.47;;;13.30;59.90;;;;;;5117836;23;20508;-88
2021/05/26 07:35:44;;;;;;;1.77;1.67;;;15.60;66.20;;;;;;5116900;23;20485;-90
2021/05/26 07:38:12;;;;;;;1.67;1.67;;;13.90;58.40;;;;;;5010180;28;20434;-90
2021/05/26 07:40:38;;;;;;;1.43;1.43;;;14.70;57.50;;;;;;5006789;28;20455;-85
2021/05/26 07:43:04;;;;;;;1.57;1.57;;;16.00;56.20;;;;;;5017154;28;20415;-86
2021/05/26 07:45:29;;;;;;;1.90;1.80;;;15.70;56.00;;;;;;5016424;28;20653;-87
2021/05/26 07:47:55;;;;;;;1.50;1.50;;;15.30;55.30;;;;;;5021422;28;20183;-87
2021/05/26 07:50:21;;;;;;;1.70;1.40;;;15.00;53.80;;;;;;5002132;28;20688;-85
2021/05/26 07:52:46;;;;;;;1.30;1.30;;;15.20;54.40;;;;;;4998175;28;20168;-88
2021/05/26 07:55:13;;;;;;;6.50;6.00;;;16.10;53.50;;;;;;4998557;28;20263;-86
2021/05/26 07:57:39;;;;;;;1.40;1.40;;;16.90;52.50;;;;;;5016298;28;20191;-86
2021/05/26 08:00:06;;;;;;;1.10;1.10;;;17.40;49.80;;;;;;5017248;28;20467;-87
2021/05/26 08:02:31;;;;;;;1.20;1.20;;;17.30;49.30;;;;;;4999347;28;20243;-87
2021/05/26 08:04:57;;;;;;;1.07;0.97;;;16.50;50.70;;;;;;5017438;28;20937;-87
2021/05/26 08:07:23;;;;;;;1.60;1.40;;;16.80;50.70;;;;;;5017054;28;20624;-87
2021/05/26 08:09:48;;;;;;;0.93;0.93;;;;;;;;;;5018196;28;20275;-92
2021/05/26 08:12:17;;;;;;;1.00;1.00;;;17.80;47.50;;;;;;5016511;28;20191;-88
2021/05/26 08:14:46;;;;;;;1.30;1.20;;;17.40;48.40;;;;;;5001534;28;20435;-88
2021/05/26 08:19:47;;;;;;;1.00;1.00;;;16.40;50.00;;;;;;5056496;23;20486;-89
2021/05/26 08:22:14;;;;;;;1.77;1.77;;;16.90;52.10;;;;;;5000129;28;20859;-90
2021/05/26 08:24:40;;;;;;;0.90;0.90;;;17.40;53.10;;;;;;5016828;28;20212;-90
2021/05/26 08:27:08;;;;;;;1.20;1.10;;;16.30;53.20;;;;;;5000261;28;20428;-91
2021/05/26 08:29:34;;;;;;;1.00;1.00;;;;;;;;;;4983555;28;20208;-86
2021/05/26 08:32:09;;;;;;;1.50;1.50;;;19.20;45.60;;;;;;4979457;28;20422;-91
2021/05/26 08:34:35;;;;;;;0.80;0.80;;;19.90;44.20;;;;;;4996939;28;20401;-90
2021/05/26 08:39:58;;;;;;;1.00;1.00;;;18.10;44.00;;;;;;5133246;23;20495;-89
2021/05/26 08:47:41;;;;;;;1.03;1.03;;;16.40;49.40;;;;;;4742253;23;20497;-90
2021/05/26 08:50:07;;;;;;;6.70;4.87;;;16.80;48.80;;;;;;5263577;23;20480;-88
2021/05/26 08:52:33;;;;;;;2.07;2.07;;;17.80;47.40;;;;;;4997323;28;20428;-91
2021/05/26 08:55:03;;;;;;;1.33;1.33;;;17.60;47.30;;;;;;4993629;28;20532;-85
2021/05/26 08:57:30;;;;;;;1.00;1.00;;;17.60;48.30;;;;;;4984052;28;20188;-89
2021/05/26 08:59:56;;;;;;;2.00;1.03;;;16.80;49.70;;;;;;4984749;28;20528;-88
2021/05/26 09:02:24;;;;;;;1.10;1.10;;;16.40;50.40;;;;;;4985039;28;20456;-89
2021/05/26 09:04:51;;;;;;;1.30;1.30;;;17.40;53.00;;;;;;4986241;28;20181;-86
2021/05/26 09:07:19;;;;;;;1.30;1.30;;;17.00;52.40;;;;;;5001479;28;20408;-85
2021/05/26 09:10:01;;;;;;;5.10;1.47;;;16.00;52.30;;;;;;5043973;23;20492;-88
2021/05/26 09:12:43;;;;;;;0.90;0.90;;;17.30;50.20;;;;;;4985183;28;20440;-85
2021/05/26 09:15:17;;;;;;;0.93;0.93;;;18.50;47.00;;;;;;4977583;28;20498;-85
2021/05/26 09:17:44;;;;;;;1.07;1.07;;;19.80;44.70;;;;;;4636151;28;9999844;-85
2021/05/26 09:20:42;;;;;;;1.57;1.47;;;20.20;43.90;;;;;;4974114;28;20823;-85
2021/05/26 09:23:20;;;;;;;1.07;0.80;;;20.60;42.90;;;;;;4953145;28;20775;-86
2021/05/26 09:25:48;;;;;;;1.23;0.83;;;20.90;42.40;;;;;;4954744;28;20996;-85
2021/05/26 09:28:36;;;;;;;0.97;0.97;;;21.50;41.50;;;;;;4964696;28;20402;-88
2021/05/26 09:31:08;;;;;;;0.80;0.80;;;22.10;40.70;;;;;;4987662;28;20447;-92
2021/05/26 09:33:51;;;;;;;1.90;0.97;;;23.00;39.80;;;;;;4972211;28;20472;-93
2021/05/26 09:36:32;;;;;;;0.50;0.50;;;23.30;38.10;;;;;;4974019;28;20421;-90
2021/05/26 09:39:10;;;;;;;0.60;0.60;;;23.10;36.50;;;;;;4993826;28;20439;-90
2021/05/26 09:41:44;;;;;;;0.80;0.80;;;23.80;35.20;;;;;;5011665;28;20472;-91
2021/05/26 09:44:19;;;;;;;0.70;0.70;;;22.70;36.00;;;;;;4993594;28;20428;-90
2021/05/26 09:46:44;;;;;;;0.60;0.60;;;22.30;37.40;;;;;;4991828;28;20448;-87
2021/05/26 09:49:13;;;;;;;1.07;1.07;;;20.40;35.80;;;;;;5014179;28;20427;-89
2021/05/26 09:51:48;;;;;;;1.00;1.00;;;22.00;38.00;;;;;;5010692;28;20196;-90
2021/05/26 09:54:42;;;;;;;0.70;0.70;;;21.60;39.30;;;;;;5010804;28;20477;-89
2021/05/26 09:57:08;;;;;;;2.00;1.47;;;22.60;38.50;;;;;;5023139;28;20444;-91
2021/05/26 09:59:35;;;;;;;0.80;0.80;;;23.10;39.90;;;;;;4991857;28;20453;-91
2021/05/26 10:02:06;;;;;;;2.30;2.20;;;22.10;38.50;;;;;;4990559;28;20205;-89
2021/05/26 10:04:32;;;;;;;0.70;0.70;;;22.50;38.20;;;;;;4992640;28;20416;-88
2021/05/26 10:07:06;;;;;;;0.90;0.90;;;21.30;39.50;;;;;;5008232;28;20439;-88
2021/05/26 10:09:36;;;;;;;0.60;0.60;;;21.70;39.00;;;;;;5006414;28;20236;-91
2021/05/26 10:12:17;;;;;;;0.67;0.67;;;23.30;38.30;;;;;;5138529;23;20492;-89
2021/05/26 10:14:59;;;;;;;0.60;0.60;;;23.40;36.50;;;;;;5058719;23;20491;-91
2021/05/26 10:17:33;;;;;;;0.63;0.63;;;24.10;36.70;;;;;;5170578;23;20439;-90
2021/05/26 10:20:04;;;;;;;1.23;1.23;;;21.60;36.30;;;;;;5439775;23;20496;-90
2021/05/26 10:22:37;;;;;;;1.30;1.30;;;23.30;37.40;;;;;;5187732;23;20530;-89
2021/05/26 10:25:16;;;;;;;1.10;1.10;;;23.70;35.90;;;;;;5007616;28;20659;-90
2021/05/26 10:27:50;;;;;;;1.20;1.13;;;23.10;35.80;;;;;;5010622;28;20443;-88
2021/05/26 10:30:20;;;;;;;1.27;1.23;;;22.00;37.70;;;;;;5014154;28;20434;-87
2021/05/26 10:32:52;;;;;;;1.00;1.00;;;20.90;39.00;;;;;;5005800;28;20581;-89
2021/05/26 10:35:26;;;;;;;1.63;1.63;;;20.40;40.30;;;;;;5024133;28;20461;-91
2021/05/26 10:40:41;;;;;;;1.40;1.30;;;19.30;40.20;;;;;;5049600;23;20479;-87
2021/05/26 10:43:18;;;;;;;1.17;1.17;;;18.80;41.10;;;;;;5027150;28;20451;-90
2021/05/26 10:45:46;;;;;;;1.03;1.03;;;20.70;42.50;;;;;;5005977;28;20411;-89
2021/05/26 10:48:16;;;;;;;1.10;1.03;;;21.30;41.20;;;;;;5014954;28;20427;-91
2021/05/26 10:51:25;;;;;;;1.30;1.20;;;19.80;40.20;;;;;;5031791;28;20412;-88
2021/05/26 10:54:06;;;;;;;17.37;11.53;;;19.20;41.90;;;;;;5030922;28;20427;-88
2021/05/26 10:56:43;;;;;;;1.60;1.50;;;19.90;44.10;;;;;;5023032;28;20445;-89
2021/05/26 10:59:20;;;;;;;5.53;2.27;;;18.50;44.00;;;;;;4987295;28;20523;-87
2021/05/26 11:02:11;;;;;;;1.73;1.63;;;19.80;46.30;;;;;;5026243;28;20427;-92
2021/05/26 11:05:26;;;;;;;1.70;1.60;;;17.80;45.60;;;;;;5007306;28;20408;-89
2021/05/26 11:08:41;;;;;;;1.60;1.50;;;17.50;45.80;;;;;;5034795;28;20455;-93
2021/05/26 11:11:33;;;;;;;1.97;1.97;;;17.20;46.50;;;;;;5076528;23;20480;-90
2021/05/26 11:14:25;;;;;;;1.30;1.30;;;17.50;48.30;;;;;;4990810;28;20868;-90
2021/05/26 11:16:54;;;;;;;1.67;1.53;;;16.50;48.10;;;;;;5070131;23;20413;-91
2021/05/26 11:19:29;;;;;;;1.33;1.33;;;17.20;46.90;;;;;;5007695;28;20464;-88
2021/05/26 11:22:14;;;;;;;2.00;1.97;;;18.80;46.70;;;;;;5075090;23;20492;-87
2021/05/26 11:30:04;;;;;;;4.37;4.03;;;19.50;40.70;;;;;;5214226;23;20518;-92
2021/05/26 11:32:36;;;;;;;1.00;1.00;;;20.00;43.30;;;;;;5229379;23;20519;-88
2021/05/26 11:35:12;;;;;;;0.97;0.97;;;19.60;42.60;;;;;;5025097;28;20407;-91
2021/05/26 11:37:43;;;;;;;1.20;1.20;;;20.90;41.70;;;;;;5029389;28;20168;-88
2021/05/26 11:40:23;;;;;;;0.90;0.90;;;23.60;44.90;;;;;;5036022;28;20459;-90
2021/05/26 11:42:50;;;;;;;0.90;0.90;;;22.70;37.70;;;;;;5029305;28;20399;-88
2021/05/26 11:45:49;;;;;;;1.00;1.00;;;25.60;38.40;;;;;;5034521;28;20459;-91
2021/05/26 11:48:27;;;;;;;1.03;0.93;;;23.70;37.30;;;;;;4993804;28;20466;-89
2021/05/26 11:50:52;;;;;;;1.00;1.00;;;23.60;37.30;;;;;;5011829;28;21053;-88
2021/05/26 11:53:19;;;;;;;1.90;1.90;;;24.20;36.10;;;;;;5021738;28;20264;-89
2021/05/26 11:55:48;;;;;;;0.97;0.93;;;23.60;34.80;;;;;;4984874;28;20169;-88
2021/05/26 11:58:35;;;;;;;1.17;1.17;;;23.00;35.20;;;;;;5006399;28;20482;-90
2021/05/26 12:01:16;;;;;;;1.23;1.20;;;21.10;36.90;;;;;;4985746;28;20468;-89
2021/05/26 12:08:59;;;;;;;1.30;1.30;;;19.40;40.50;;;;;;5235148;23;20558;-88
2021/05/26 12:11:35;;;;;;;23.33;11.73;;;19.40;41.70;;;;;;5157928;23;20592;-90
2021/05/26 12:17:09;;;;;;;1.20;1.20;;;19.00;42.70;;;;;;5143645;23;20482;-90
2021/05/26 12:19:39;;;;;;;6.30;2.67;;;18.70;44.00;;;;;;5068465;23;20550;-91
2021/05/26 12:22:29;;;;;;;1.43;1.43;;;18.90;43.40;;;;;;5033109;28;20472;-88
2021/05/26 12:28:16;;;;;;;1.77;1.77;;;18.30;45.60;;;;;;5295089;23;20521;-88
2021/05/26 12:30:46;;;;;;;1.60;1.60;;;17.60;49.00;;;;;;5013164;28;20455;-90
2021/05/26 12:36:05;;;;;;;4.27;3.97;;;17.00;49.70;;;;;;5067662;23;20479;-88
2021/05/26 12:38:34;;;;;;;4.80;4.57;;;16.50;55.70;;;;;;5031491;28;20451;-89
2021/05/26 12:41:34;;;;;;;3.63;3.60;;;14.90;56.20;;;;;;5033097;23;20491;-91
2021/05/26 12:44:21;;;;;;;3.30;3.20;;;14.80;58.30;;;;;;5029339;28;20407;-90
2021/05/26 12:46:50;;;;;;;2.93;2.80;;;14.10;62.90;;;;;;5009053;28;20473;-87
2021/05/26 12:49:29;;;;;;;3.10;3.10;;;13.80;64.80;;;;;;5007324;28;20439;-85
2021/05/26 12:51:56;;;;;;;2.83;2.73;;;13.30;65.60;;;;;;5005941;28;20537;-90
2021/05/26 12:54:22;;;;;;;3.40;3.20;;;13.00;68.90;;;;;;5001242;28;20511;-89
2021/05/26 12:57:05;;;;;;;3.00;3.00;;;13.00;71.50;;;;;;5019982;28;20451;-87
2021/05/26 13:00:00;;;;;;;2.40;2.40;;;13.20;71.40;;;;;;5005938;28;20173;-89
2021/05/26 13:02:42;;;;;;;2.27;2.17;;;14.40;71.40;;;;;;5100878;23;21002;-89
2021/05/26 13:05:10;;;;;;;2.27;2.27;;;15.80;66.40;;;;;;5082189;23;20487;-88
2021/05/26 13:08:17;;;;;;;3.60;2.60;;;16.80;60.40;;;;;;4987474;28;20451;-91
2021/05/26 13:13:37;;;;;;;2.30;2.30;;;18.60;56.50;;;;;;5035783;28;20487;-90
2021/05/26 13:16:14;;;;;;;3.00;2.90;;;19.30;55.50;;;;;;5034016;28;20411;-90
2021/05/26 13:19:17;;;;;;;3.50;3.20;;;19.70;53.40;;;;;;5022118;28;20460;-92
2021/05/26 13:21:48;;;;;;;2.67;2.57;;;22.70;57.10;;;;;;5032420;28;20521;-89
2021/05/26 13:24:23;;;;;;;3.50;2.30;;;21.80;50.90;;;;;;5032422;28;20408;-92
2021/05/26 13:26:53;;;;;;;2.00;1.90;;;22.30;46.90;;;;;;5031259;28;20423;-90
2021/05/26 13:29:25;;;;;;;2.40;2.40;;;22.50;48.10;;;;;;5029406;28;20443;-89
2021/05/26 13:31:52;;;;;;;2.97;2.97;;;22.50;46.70;;;;;;5201916;23;20471;-91
2021/05/26 13:34:59;;;;;;;;;;;;;;;;;;;;;
2021/05/26 13:37:25;;;;;;;6.60;2.77;;;22.40;46.40;;;;;;5029180;28;20450;-89
2021/05/26 13:39:50;;;;;;;3.50;3.30;;;21.40;51.10;;;;;;5054285;23;20479;-87
2021/05/26 13:42:22;;;;;;;2.70;2.60;;;20.50;48.90;;;;;;5032701;28;20436;-92
2021/05/26 13:45:04;;;;;;;3.73;3.63;;;19.40;51.00;;;;;;5221876;23;20223;-89
2021/05/26 13:47:33;;;;;;;4.50;4.20;;;19.00;51.60;;;;;;5016821;28;20543;-89
2021/05/26 13:49:59;;;;;;;4.07;4.07;;;19.30;55.60;;;;;;5161694;23;20475;-90
2021/05/26 13:52:53;;;;;;;3.97;3.53;;;17.90;55.70;;;;;;5015210;28;20469;-90
2021/05/26 13:55:24;;;;;;;6.50;6.00;;;17.30;51.80;;;;;;5032278;28;20424;-89
2021/05/26 13:57:52;;;;;;;6.43;5.93;;;17.20;59.00;;;;;;5005499;28;20435;-88
2021/05/26 14:00:22;;;;;;;6.77;6.20;;;14.50;59.20;;;;;;5003136;28;20522;-90
2021/05/26 14:02:49;;;;;;;5.13;4.83;;;14.00;59.80;;;;;;5017764;28;20419;-89
2021/05/26 14:05:16;;;;;;;7.50;7.00;;;13.50;60.00;;;;;;5017777;28;21123;-83
2021/05/26 14:07:49;;;;;;;5.87;5.43;;;13.20;65.00;;;;;;5005615;28;20424;-91
2021/05/26 14:10:18;;;;;;;6.57;6.17;;;13.20;66.70;;;;;;4957599;28;20424;-91
2021/05/26 14:12:49;;;;;;;6.90;5.77;;;13.00;69.60;;;;;;4993524;28;20518;-89
2021/05/26 14:15:22;;;;;;;6.70;6.38;;;13.60;71.10;;;;;;4980593;28;20428;-90
2021/05/26 14:17:55;;;;;;;5.50;5.10;;;13.80;75.50;;;;;;4990148;28;20584;-89
2021/05/26 14:20:23;;;;;;;5.38;4.97;;;13.60;73.30;;;;;;4990850;28;20271;-88
2021/05/26 14:22:49;;;;;;;5.80;5.50;;;12.30;71.60;;;;;;4959570;28;20240;-89
2021/05/26 14:25:17;;;;;;;7.07;6.73;;;11.30;71.80;;;;;;4980796;28;20432;-89
2021/05/26 14:27:47;;;;;;;7.30;6.83;;;11.70;73.50;;;;;;4996683;28;20519;-87
2021/05/26 14:30:14;;;;;;;8.05;7.47;;;11.60;75.10;;;;;;4980661;28;20420;-88
2021/05/26 14:32:40;;;;;;;6.60;6.10;;;11.40;74.90;;;;;;4970383;28;20180;-88
2021/05/26 14:35:10;;;;;;;6.30;5.93;;;11.80;77.10;;;;;;4992917;28;20432;-89
2021/05/26 14:37:47;;;;;;;8.10;7.50;;;11.60;75.50;;;;;;4988537;28;20245;-90
2021/05/26 14:40:14;;;;;;;5.95;5.75;;;11.90;78.40;;;;;;4989475;28;21033;-89
2021/05/26 14:42:40;;;;;;;5.97;5.60;;;12.20;75.30;;;;;;5007327;28;20169;-89
2021/05/26 14:45:08;;;;;;;5.90;5.50;;;13.20;73.90;;;;;;5004302;28;20943;-90
2021/05/26 14:47:34;;;;;;;5.77;5.50;;;12.40;74.10;;;;;;4970814;28;20426;-88
2021/05/26 14:50:00;;;;;;;5.43;5.13;;;13.70;74.00;;;;;;4987928;28;20417;-90
2021/05/26 14:52:30;;;;;;;5.82;5.53;;;11.90;72.80;;;;;;5018702;28;20188;-91
2021/05/26 14:54:56;;;;;;;7.10;6.70;;;13.20;71.40;;;;;;5012600;28;20190;-88
2021/05/26 14:57:25;;;;;;;7.40;7.00;;;13.10;71.50;;;;;;5027503;28;20470;-88
2021/05/26 14:59:53;;;;;;;8.00;7.40;;;13.50;69.90;;;;;;5045851;28;20286;-88
2021/05/26 15:02:24;;;;;;;8.43;7.93;;;14.40;74.00;;;;;;5046351;28;20433;-88
2021/05/26 15:04:59;;;;;;;7.80;7.20;;;13.10;67.40;;;;;;5027416;28;20403;-89
2021/05/26 15:07:35;;;;;;;7.90;7.40;;;13.00;68.20;;;;;;5024447;28;20431;-89
2021/05/26 15:10:08;;;;;;;7.80;7.10;;;13.10;68.70;;;;;;5008719;28;20418;-88
2021/05/26 15:12:38;;;;;;;8.23;7.53;;;13.00;67.70;;;;;;5010510;28;20432;-90
2021/05/26 15:15:28;;;;;;;8.97;8.37;;;12.30;68.70;;;;;;5011079;28;20452;-91
2021/05/26 15:17:56;;;;;;;8.87;8.27;;;13.00;72.00;;;;;;5030264;28;20412;-88
2021/05/26 15:20:23;;;;;;;9.60;8.70;;;14.40;73.70;;;;;;5014255;28;20462;-87
2021/05/26 15:22:54;;;;;;;10.47;9.67;;;13.20;69.60;;;;;;5014772;28;20428;-89
2021/05/26 15:25:55;;;;;;;9.03;8.07;;;13.40;73.40;;;;;;5014790;28;20423;-89
2021/05/26 15:29:18;;;;;;;9.50;8.80;;;12.80;68.00;;;;;;5013342;28;20433;-88
2021/05/26 15:31:58;;;;;;;10.80;9.80;;;14.00;69.20;;;;;;5031930;28;20490;-91
2021/05/26 15:34:56;;;;;;;9.37;8.67;;;13.70;70.50;;;;;;4996451;28;20535;-89
2021/05/26 15:37:52;;;;;;;9.20;8.50;;;13.00;69.20;;;;;;4998074;28;20411;-89
2021/05/26 15:43:10;;;;;;;10.27;9.23;;;14.20;70.10;;;;;;4973178;28;20449;-89
2021/05/26 15:45:42;;;;;;;6.50;6.30;;;16.00;70.30;;;;;;4956206;29;20426;-88
2021/05/26 15:48:09;;;;;;;8.37;7.50;;;14.10;67.10;;;;;;4970212;28;20772;-90
2021/05/26 15:50:54;;;;;;;8.57;7.97;;;14.30;68.70;;;;;;4982382;28;20601;-90
2021/05/26 15:53:30;;;;;;;8.00;7.30;;;14.40;66.90;;;;;;4976729;28;20425;-87
2021/05/26 15:56:04;;;;;;;9.23;8.70;;;14.00;67.50;;;;;;4975956;28;20528;-90
2021/05/26 15:58:36;;;;;;;6.87;6.20;;;14.70;69.20;;;;;;4993809;28;20507;-92
2021/05/26 16:01:06;;;;;;;5.63;5.43;;;15.60;69.00;;;;;;4979169;28;20448;-89
2021/05/26 16:03:49;;;;;;;7.07;6.67;;;14.80;66.00;;;;;;4995708;28;20421;-89
2021/05/26 16:06:18;;;;;;;5.53;5.07;;;14.70;65.80;;;;;;5081916;23;20522;-92
2021/05/26 16:08:48;;;;;;;1.50;1.50;;;14.70;65.30;;;;;;5011069;28;20559;-90
2021/05/26 16:11:34;;;;;;;3.20;3.07;;;15.60;56.50;;;;;;4970577;28;20435;-89
2021/05/26 16:14:14;;;;;;;;;;;;;;;;;;;;;
2021/05/26 16:17:06;;;;;;;2.37;2.27;;;14.30;56.80;;;;;;5015785;28;20839;-91
2021/05/26 16:19:38;;;;;;;3.33;3.13;;;15.10;57.30;;;;;;5228988;23;20511;-90
2021/05/26 16:22:12;;;;;;;2.50;2.33;;;15.20;57.10;;;;;;5036654;28;20497;-92
2021/05/26 16:24:38;;;;;;;2.40;2.30;;;13.40;55.80;;;;;;5036545;28;20494;-91
2021/05/26 16:27:17;;;;;;;3.27;3.10;;;15.80;58.30;;;;;;5129964;23;20563;-91
2021/05/26 16:29:46;;;;;;;3.40;3.30;;;15.20;57.80;;;;;;5321124;23;20217;-91
2021/05/26 16:32:26;;;;;;;3.53;3.43;;;14.60;57.10;;;;;;5096055;23;20538;-91
2021/05/26 16:35:09;;;;;;;2.77;2.57;;;15.90;57.80;;;;;;5037068;28;20444;-91
2021/05/26 16:38:15;;;;;;;4.50;4.27;;;14.60;55.70;;;;;;5032197;28;20455;-90
2021/05/26 16:46:15;;;;;;;3.90;3.60;;;14.60;55.50;;;;;;5704154;23;20442;-90
2021/05/26 16:48:41;;;;;;;2.20;2.10;;;14.70;55.40;;;;;;4989416;23;20477;-91
2021/05/26 16:51:17;;;;;;;2.83;2.70;;;14.60;56.70;;;;;;5288016;23;20541;-91
2021/05/26 16:59:05;;;;;;;2.10;2.03;;;14.70;54.30;;;;;;5106133;23;20467;-92
2021/05/26 17:24:15;;;;;;;3.30;3.20;;;14.60;51.50;;;;;;4724490;26;20547;-91
2021/05/26 17:29:17;;;;;;;4.60;3.67;;;14.60;50.80;;;;;;5210607;23;20691;-90
2021/05/26 17:32:11;;;;;;;2.50;2.40;;;14.60;50.40;;;;;;5034998;28;20423;-90
2021/05/26 17:34:59;;;;;;;11.37;6.23;;;15.70;51.00;;;;;;5002268;28;20423;-92
2021/05/26 17:40:46;;;;;;;1.87;1.83;;;14.20;50.40;;;;;;5007230;23;20452;-90
2021/05/26 17:45:53;;;;;;;2.63;2.53;;;13.90;50.40;;;;;;5881514;23;20455;-90
2021/05/26 18:12:21;;;;;;;2.80;2.60;;;13.60;52.20;;;;;;3331299;23;20496;-89
2021/05/26 18:14:49;;;;;;;2.40;2.30;;;13.20;52.50;;;;;;5000091;28;20416;-90
2021/05/26 18:17:31;;;;;;;2.27;2.27;;;13.60;53.30;;;;;;4999417;28;20441;-91
2021/05/26 18:34:46;;;;;;;3.00;2.90;;;13.40;51.70;;;;;;5285516;23;20500;-91
2021/05/26 18:39:52;;;;;;;3.80;3.50;;;13.30;51.50;;;;;;4653713;23;21532;-90
2021/05/26 18:42:32;;;;;;;3.60;2.43;;;15.10;55.20;;;;;;5071602;23;20520;-90
2021/05/26 18:45:10;;;;;;;3.00;2.80;;;12.80;52.50;;;;;;4998993;28;20441;-92
2021/05/26 18:48:00;;;;;;;2.83;2.73;;;13.10;52.40;;;;;;4993602;28;20425;-91
2021/05/26 18:50:50;;;;;;;4.10;3.20;;;13.10;53.10;;;;;;5251587;23;20495;-91
2021/05/26 18:55:51;;;;;;;3.43;3.10;;;12.80;54.50;;;;;;5050759;23;20595;-91
2021/05/26 18:58:52;;;;;;;3.20;2.90;;;12.60;56.10;;;;;;4996022;28;20497;-90
2021/05/26 19:01:39;;;;;;;2.90;2.80;;;12.50;56.80;;;;;;5145820;23;20215;-91
2021/05/26 19:04:06;;;;;;;3.58;3.50;;;12.80;56.80;;;;;;5030839;28;20427;-90
2021/05/26 19:14:50;;;;;;;3.13;2.90;;;12.10;58.50;;;;;;5402144;23;20951;-90
2021/05/26 19:17:37;;;;;;;4.00;3.30;;;11.50;58.70;;;;;;5012399;28;20412;-90
2021/05/26 19:20:59;;;;;;;4.20;4.10;;;11.60;59.50;;;;;;4968787;28;20489;-91
2021/05/26 19:23:48;;;;;;;;;;;;;;;;;;;;;
2021/05/26 19:26:17;;;;;;;4.32;3.95;;;11.90;64.30;;;;;;5036096;28;20423;-90
2021/05/26 19:36:33;;;;;;;4.63;3.92;;;12.20;61.20;;;;;;5037975;28;20507;-89
2021/05/26 19:39:28;;;;;;;5.20;4.20;;;12.00;62.60;;;;;;5019429;28;20177;-91
2021/05/26 19:42:02;;;;;;;3.87;3.77;;;11.30;61.00;;;;;;4669294;28;10000096;-89
2021/05/26 19:44:28;;;;;;;4.10;3.80;;;11.90;64.50;;;;;;5004382;28;20157;-91
2021/05/26 19:46:56;;;;;;;5.40;4.93;;;11.50;64.90;;;;;;5020141;28;20514;-91
2021/05/26 19:49:29;;;;;;;4.97;4.70;;;13.70;68.10;;;;;;5019432;28;20435;-89
2021/05/26 19:52:03;;;;;;;5.07;4.77;;;12.10;67.60;;;;;;5018790;28;20427;-89
2021/05/26 19:54:44;;;;;;;5.00;4.90;;;11.80;63.90;;;;;;5003960;28;20407;-91
2021/05/26 19:57:26;;;;;;;6.50;5.93;;;11.40;62.70;;;;;;5037921;28;20403;-90
2021/05/26 19:59:53;;;;;;;5.90;5.63;;;10.90;64.00;;;;;;5034201;28;20182;-90
2021/05/26 20:02:18;;;;;;;5.93;5.60;;;11.60;68.30;;;;;;5019191;28;20435;-93
2021/05/26 20:04:48;;;;;;;5.60;5.33;;;12.70;69.40;;;;;;5020279;28;20244;-91
2021/05/26 20:10:20;;;;;;;6.70;6.10;;;11.80;67.80;;;;;;5194628;23;20489;-91
2021/05/26 20:13:00;;;;;;;6.93;6.40;;;13.10;72.40;;;;;;5100666;23;20490;-93
2021/05/26 20:15:35;;;;;;;7.43;6.97;;;11.50;71.10;;;;;;5035917;28;20464;-90
2021/05/26 20:18:10;;;;;;;7.07;6.47;;;11.40;71.30;;;;;;5035829;28;20411;-91
2021/05/26 20:20:51;;;;;;;7.47;7.07;;;11.70;71.40;;;;;;5031653;28;20200;-91
2021/05/26 20:23:52;;;;;;;9.07;8.30;;;10.60;70.60;;;;;;5035253;28;20416;-90
2021/05/26 20:26:18;;;;;;;7.90;7.20;;;11.40;70.60;;;;;;5036175;28;20442;-90
2021/05/26 20:28:45;;;;;;;9.03;8.33;;;11.60;74.30;;;;;;5036231;28;20412;-92
2021/05/26 20:31:16;;;;;;;8.20;7.40;;;13.00;76.70;;;;;;5035055;28;20451;-91
2021/05/26 20:36:38;;;;;;;9.97;6.53;;;11.50;70.00;;;;;;5012834;26;20250;-91
2021/05/26 20:39:09;;;;;;;9.07;8.30;;;12.00;74.30;;;;;;5039808;28;20408;-91
2021/05/26 20:44:19;;;;;;;8.20;7.70;;;11.40;71.80;;;;;;5149265;23;20460;-90
2021/05/26 20:47:01;;;;;;;10.73;9.00;;;11.30;71.40;;;;;;5016182;28;20450;-92
2021/05/26 20:49:27;;;;;;;6.80;6.20;;;11.70;74.10;;;;;;5020226;28;20423;-92
2021/05/26 20:52:11;;;;;;;7.83;6.53;;;10.70;73.40;;;;;;5021204;28;20208;-90
2021/05/26 20:54:37;;;;;;;6.40;5.90;;;10.60;73.20;;;;;;5018228;28;20895;-91
2021/05/26 20:57:43;;;;;;;7.60;7.10;;;11.30;75.80;;;;;;5457648;23;20219;-91
2021/05/26 21:00:13;;;;;;;7.77;7.27;;;11.50;72.50;;;;;;4996901;28;20488;-90